Time;durP1;ratioP1;P1;durP2;ratioP2;P2;SDS_P1;SDS_P2;PMS_P1;PMS_P2;Temp;Humidity;BMP_temperature;BMP_pressure;BME280_temperature;BME280_humidity;BME280_pressure;Samples;Min_cycle;Max_cycle;Signal;HPM_P1;HPM_P2
2021/12/29 00:02:20;;;;;;;54.13;18.60;;;;;;;2.31;100.00;93542.34;4999524;28;20033;-84
2021/12/29 00:04:45;;;;;;;49.38;19.45;;;;;;;2.43;100.00;93549.22;4997477;28;20038;-84
2021/12/29 00:07:11;;;;;;;92.25;21.73;;;;;;;2.40;100.00;93543.50;4998238;28;20034;-84
2021/12/29 00:09:40;;;;;;;97.80;21.83;;;;;;;2.36;100.00;93550.16;4982137;28;20030;-84
2021/12/29 00:12:10;;;;;;;73.47;22.60;;;;;;;2.33;100.00;93552.44;4998573;28;20045;-84
2021/12/29 00:14:36;;;;;;;106.78;23.27;;;;;;;2.26;100.00;93545.63;4998270;28;20085;-84
2021/12/29 00:17:02;;;;;;;82.43;23.02;;;;;;;2.34;100.00;93552.22;4981875;28;20037;-84
2021/12/29 00:19:27;;;;;;;50.55;19.17;;;;;;;2.32;100.00;93554.25;4998305;28;20321;-84
2021/12/29 00:21:53;;;;;;;42.38;18.35;;;;;;;2.37;100.00;93551.72;4998062;28;20030;-84
2021/12/29 00:24:18;;;;;;;40.55;17.30;;;;;;;2.37;100.00;93541.38;4981911;28;20580;-84
2021/12/29 00:26:44;;;;;;;82.28;22.42;;;;;;;2.29;100.00;93539.19;4981944;28;20436;-84
2021/12/29 00:29:09;;;;;;;43.30;17.65;;;;;;;2.38;100.00;93542.19;4997717;28;20471;-84
2021/12/29 00:31:35;;;;;;;54.55;19.90;;;;;;;2.35;100.00;93543.44;4998180;28;20498;-84
2021/12/29 00:34:00;;;;;;;51.17;17.92;;;;;;;2.11;100.00;93551.31;4997964;28;20030;-84
2021/12/29 00:36:26;;;;;;;47.47;17.13;;;;;;;2.04;100.00;93561.03;4998111;28;20034;-84
2021/12/29 00:38:52;;;;;;;59.05;19.45;;;;;;;2.02;100.00;93560.50;4997596;28;20092;-84
2021/12/29 00:41:19;;;;;;;59.28;19.58;;;;;;;1.86;100.00;93562.03;4997713;28;20034;-84
2021/12/29 00:43:45;;;;;;;65.80;20.38;;;;;;;1.86;100.00;93563.81;4997611;28;20030;-84
2021/12/29 00:46:13;;;;;;;45.90;16.00;;;;;;;1.71;100.00;93567.69;4997892;28;20034;-84
2021/12/29 00:48:42;;;;;;;39.80;16.65;;;;;;;1.78;100.00;93568.34;4997425;28;20030;-84
2021/12/29 00:51:08;;;;;;;49.33;16.75;;;;;;;1.85;100.00;93563.06;4997535;28;20026;-84
2021/12/29 00:53:33;;;;;;;37.15;14.75;;;;;;;1.92;100.00;93570.66;4998884;28;20069;-84
2021/12/29 00:55:59;;;;;;;40.00;14.98;;;;;;;2.09;100.00;93566.28;4997351;28;20057;-84
2021/12/29 00:58:25;;;;;;;48.47;18.70;;;;;;;1.93;100.00;93564.47;4997189;28;20022;-84
2021/12/29 01:00:51;;;;;;;38.85;15.13;;;;;;;1.92;100.00;93565.50;4981296;28;20026;-84
2021/12/29 01:03:16;;;;;;;29.27;12.85;;;;;;;1.99;100.00;93566.09;4997261;28;20125;-84
2021/12/29 01:05:42;;;;;;;32.15;13.00;;;;;;;1.83;100.00;93565.09;4997264;28;20031;-84
2021/12/29 01:08:07;;;;;;;32.70;13.02;;;;;;;1.84;100.00;93559.66;4997249;28;20041;-84
2021/12/29 01:10:34;;;;;;;43.53;16.80;;;;;;;1.90;100.00;93562.34;4997394;28;20030;-84
2021/12/29 01:13:02;;;;;;;57.92;17.90;;;;;;;1.89;100.00;93561.56;4997404;28;20391;-84
2021/12/29 01:15:36;;;;;;;41.17;15.80;;;;;;;1.98;100.00;93573.09;4981230;28;20036;-84
2021/12/29 01:18:05;;;;;;;37.30;12.10;;;;;;;1.94;100.00;93577.16;4996925;28;20026;-84
2021/12/29 01:20:31;;;;;;;27.85;11.80;;;;;;;1.76;100.00;93574.75;4997261;28;20034;-84
2021/12/29 01:22:58;;;;;;;29.17;12.35;;;;;;;1.82;100.00;93579.78;4997058;28;20062;-84
2021/12/29 01:25:24;;;;;;;37.20;14.52;;;;;;;1.88;100.00;93578.06;4981039;28;20026;-84
2021/12/29 01:27:50;;;;;;;47.28;15.25;;;;;;;1.68;100.00;93568.16;4996643;28;20038;-84
2021/12/29 01:30:16;;;;;;;48.90;17.45;;;;;;;1.60;100.00;93574.47;4996599;28;20045;-84
2021/12/29 01:32:42;;;;;;;44.80;15.38;;;;;;;1.64;100.00;93580.75;4980728;28;20026;-84
2021/12/29 01:35:09;;;;;;;32.42;13.25;;;;;;;1.62;100.00;93577.63;4996977;28;20041;-84
2021/12/29 01:37:34;;;;;;;40.00;14.52;;;;;;;1.61;100.00;93581.22;4996587;28;20038;-84
2021/12/29 01:40:01;;;;;;;35.72;13.10;;;;;;;1.57;100.00;93580.13;4996957;28;20026;-84
2021/12/29 01:42:26;;;;;;;34.38;13.93;;;;;;;1.80;100.00;93581.81;4996899;28;20047;-84
2021/12/29 01:44:52;;;;;;;46.83;14.48;;;;;;;1.65;100.00;93568.63;4997632;28;20029;-84
2021/12/29 01:47:29;;;;;;;39.25;14.30;;;;;;;1.74;100.00;93582.75;4980443;28;20506;-84
2021/12/29 01:49:54;;;;;;;26.90;11.98;;;;;;;1.61;100.00;93580.44;4996440;28;20108;-84
2021/12/29 01:52:25;;;;;;;32.22;12.23;;;;;;;1.65;100.00;93581.53;4996450;28;20029;-84
2021/12/29 01:54:50;;;;;;;35.17;13.98;;;;;;;1.71;100.00;93590.16;4997923;28;20088;-84
2021/12/29 01:57:17;;;;;;;42.95;14.45;;;;;;;1.64;100.00;93577.41;4996593;28;20038;-84
2021/12/29 01:59:42;;;;;;;33.50;12.70;;;;;;;1.65;100.00;93579.75;4996329;28;20428;-84
2021/12/29 02:02:08;;;;;;;48.80;14.82;;;;;;;1.60;100.00;93584.81;4996809;28;20029;-84
2021/12/29 02:04:34;;;;;;;31.33;12.55;;;;;;;1.57;100.00;93587.06;4996524;28;20030;-84
2021/12/29 02:07:00;;;;;;;35.58;14.30;;;;;;;1.51;100.00;93586.22;4996616;28;20034;-84
2021/12/29 02:09:25;;;;;;;48.25;16.40;;;;;;;1.61;100.00;93588.19;4996455;28;20347;-84
2021/12/29 02:11:52;;;;;;;44.75;13.70;;;;;;;1.48;100.00;93592.59;4997265;28;20100;-84
2021/12/29 02:14:18;;;;;;;26.58;11.13;;;;;;;1.52;100.00;93593.72;4979937;28;20027;-84
2021/12/29 02:16:43;;;;;;;24.70;9.73;;;;;;;1.52;100.00;93592.94;4996144;28;20125;-84
2021/12/29 02:19:12;;;;;;;27.75;9.95;;;;;;;1.50;100.00;93590.56;4996254;28;20113;-84
2021/12/29 02:21:38;;;;;;;29.20;10.07;;;;;;;1.36;100.00;93589.28;4997428;28;20030;-84
2021/12/29 02:26:38;;;;;;;54.15;15.10;;;;;;;1.37;100.00;93591.63;4996120;28;20069;-84
2021/12/29 02:29:06;;;;;;;65.82;16.75;;;;;;;1.28;100.00;93593.00;4997287;28;20432;-84
2021/12/29 02:31:32;;;;;;;36.72;12.32;;;;;;;1.25;100.00;93583.91;4996204;28;20037;-84
2021/12/29 02:33:58;;;;;;;26.20;10.07;;;;;;;1.11;100.00;93580.78;4995900;28;20030;-84
2021/12/29 02:36:25;;;;;;;35.17;10.82;;;;;;;1.12;100.00;93584.16;4996250;28;20065;-84
2021/12/29 02:38:54;;;;;;;27.45;9.95;;;;;;;1.37;100.00;93577.94;4995818;28;20023;-84
2021/12/29 02:41:20;;;;;;;32.97;10.80;;;;;;;1.37;100.00;93573.56;4998521;28;20034;-84
2021/12/29 02:43:47;;;;;;;42.78;12.50;;;;;;;1.33;100.00;93575.00;4999831;28;20030;-84
2021/12/29 02:46:15;;;;;;;37.72;12.57;;;;;;;1.33;100.00;93574.25;4983837;28;20030;-84
2021/12/29 02:48:49;;;;;;;37.42;11.85;;;;;;;1.39;100.00;93568.16;5001056;28;20034;-84
2021/12/29 02:51:15;;;;;;;39.47;12.82;;;;;;;1.44;100.00;93562.31;5000141;28;20034;-84
2021/12/29 02:53:40;;;;;;;34.05;12.00;;;;;;;1.35;100.00;93562.66;5001178;28;20121;-84
2021/12/29 02:56:06;;;;;;;23.70;9.95;;;;;;;1.41;100.00;93560.97;4983631;28;20104;-84
2021/12/29 02:58:32;;;;;;;32.83;11.07;;;;;;;1.47;100.00;93565.22;4999422;28;20023;-84
2021/12/29 03:00:59;;;;;;;28.25;9.68;;;;;;;1.58;100.00;93576.50;4983570;28;20073;-84
2021/12/29 03:03:27;;;;;;;28.08;10.38;;;;;;;1.65;100.00;93568.63;4983547;28;20052;-84
2021/12/29 03:05:53;;;;;;;32.75;12.10;;;;;;;1.89;100.00;93571.13;4999795;28;20037;-84
2021/12/29 03:08:20;;;;;;;36.08;11.18;;;;;;;1.88;100.00;93572.13;4999563;28;20058;-84
2021/12/29 03:10:46;;;;;;;34.38;11.85;;;;;;;2.10;100.00;93573.03;4999585;28;20072;-84
2021/12/29 03:13:14;;;;;;;28.17;11.35;;;;;;;2.30;100.00;93571.81;4999597;28;20022;-84
2021/12/29 03:15:39;;;;;;;27.75;11.75;;;;;;;2.57;100.00;93580.72;4999615;28;20034;-84
2021/12/29 03:18:06;;;;;;;29.92;12.05;;;;;;;2.51;100.00;93582.44;4999447;28;20027;-84
2021/12/29 03:20:32;;;;;;;28.42;11.10;;;;;;;2.46;100.00;93574.63;4999375;28;20030;-84
2021/12/29 03:22:58;;;;;;;23.58;7.13;;;;;;;2.52;100.00;93569.28;4999010;28;20038;-84
2021/12/29 03:25:24;;;;;;;15.35;7.07;;;;;;;2.58;100.00;93577.88;4983099;28;20026;-85
2021/12/29 03:27:50;;;;;;;18.70;8.52;;;;;;;2.39;100.00;93577.38;4982845;28;20049;-84
2021/12/29 03:30:16;;;;;;;17.60;8.48;;;;;;;2.20;100.00;93571.63;4982980;28;20350;-85
2021/12/29 03:32:49;;;;;;;14.13;6.25;;;;;;;1.97;100.00;93562.97;5000760;28;20113;-85
2021/12/29 03:35:15;;;;;;;13.70;6.32;;;;;;;1.76;100.00;93561.84;4999396;28;20160;-85
2021/12/29 03:37:40;;;;;;;18.35;8.63;;;;;;;1.57;100.00;93558.66;4998987;28;20089;-86
2021/12/29 03:40:06;;;;;;;28.55;11.00;;;;;;;1.68;100.00;93568.16;4999042;28;20034;-86
2021/12/29 03:42:32;;;;;;;25.25;9.45;;;;;;;1.51;100.00;93568.91;4998719;28;20026;-85
2021/12/29 04:50:38;;;;;;;21.27;8.30;;;;;;;1.83;100.00;93634.81;5133903;27;20389;-85
2021/12/29 04:53:05;;;;;;;24.30;9.38;;;;;;;1.77;100.00;93636.53;5113156;28;20309;-85
2021/12/29 04:55:31;;;;;;;30.77;8.90;;;;;;;1.77;100.00;93641.69;5113388;28;20123;-85
2021/12/29 04:57:58;;;;;;;16.40;7.05;;;;;;;1.94;100.00;93659.84;5113101;28;20601;-85
2021/12/29 05:00:25;;;;;;;14.75;6.55;;;;;;;1.97;100.00;93656.78;5099917;28;20058;-85
2021/12/29 05:02:52;;;;;;;15.68;6.53;;;;;;;2.05;100.00;93660.81;5092852;28;20344;-85
2021/12/29 05:05:27;;;;;;;22.23;7.22;;;;;;;1.95;100.00;93650.28;5094018;28;20077;-85
2021/12/29 05:10:37;;;;;;;18.70;7.13;;;;;;;2.06;100.00;93646.06;5080387;28;20086;-85
2021/12/29 05:13:03;;;;;;;18.33;7.15;;;;;;;2.07;100.00;93655.38;5082365;28;20037;-85
2021/12/29 05:15:28;;;;;;;19.13;7.20;;;;;;;2.08;100.00;93660.34;5081141;28;20389;-85
2021/12/29 05:17:58;;;;;;;19.33;6.32;;;;;;;2.15;100.00;93661.97;5080538;28;20030;-85
2021/12/29 05:20:24;;;;;;;15.38;5.68;;;;;;;2.09;100.00;93664.47;5082120;28;20029;-85
2021/12/29 05:22:50;;;;;;;15.20;7.28;;;;;;;2.15;100.00;93673.13;5081055;28;20078;-84
2021/12/29 05:25:15;;;;;;;21.63;7.30;;;;;;;2.13;100.00;93672.56;5071371;28;20051;-85
2021/12/29 05:27:41;;;;;;;14.35;6.18;;;;;;;2.07;100.00;93679.44;5088253;28;20043;-85
2021/12/29 05:30:07;;;;;;;17.45;6.93;;;;;;;2.10;100.00;93676.38;5091710;28;20074;-85
2021/12/29 05:32:33;;;;;;;23.38;7.22;;;;;;;2.01;100.00;93672.63;5092339;28;20039;-85
2021/12/29 05:34:59;;;;;;;22.80;7.28;;;;;;;2.09;100.00;93676.63;5093530;28;20054;-85
2021/12/29 05:37:27;;;;;;;24.58;10.10;;;;;;;2.20;100.00;93677.59;5093364;28;20040;-85
2021/12/29 05:39:54;;;;;;;22.90;9.98;;;;;;;2.25;100.00;93673.31;5091945;28;20411;-85
2021/12/29 05:42:19;;;;;;;20.20;8.20;;;;;;;2.03;100.00;93670.59;5093398;28;20039;-85
2021/12/29 05:44:45;;;;;;;24.42;9.18;;;;;;;2.02;100.00;93670.81;5093367;28;20126;-85
2021/12/29 05:47:16;;;;;;;25.58;8.85;;;;;;;2.06;100.00;93672.72;5092182;28;20519;-85
2021/12/29 05:49:41;;;;;;;25.08;9.10;;;;;;;2.21;100.00;93674.00;5088398;28;20086;-85
2021/12/29 05:52:06;;;;;;;17.73;7.50;;;;;;;2.34;100.00;93668.53;5079703;28;20037;-85
2021/12/29 05:54:32;;;;;;;13.13;6.15;;;;;;;2.37;100.00;93669.88;5079623;28;20028;-85
2021/12/29 05:56:58;;;;;;;16.27;7.35;;;;;;;2.29;100.00;93657.31;5061415;28;20093;-85
2021/12/29 05:59:24;;;;;;;19.92;6.60;;;;;;;2.15;100.00;93659.41;5061193;28;20040;-85
2021/12/29 06:01:49;;;;;;;17.30;6.95;;;;;;;2.25;100.00;93657.78;5078381;28;20036;-85
2021/12/29 06:04:15;;;;;;;15.40;5.78;;;;;;;2.13;100.00;93659.66;5079537;28;20036;-85
2021/12/29 06:06:41;;;;;;;9.48;4.57;;;;;;;2.11;100.00;93665.03;5079434;28;20109;-84
2021/12/29 07:30:02;;;;;;;10.30;2.95;;;;;;;3.18;100.00;93694.69;5114784;27;20379;-82
2021/12/29 07:32:28;;;;;;;6.68;3.00;;;;;;;3.16;100.00;93685.56;5112694;28;20110;-82
2021/12/29 07:34:53;;;;;;;8.35;2.72;;;;;;;3.29;100.00;93684.44;5113483;28;20408;-82
2021/12/29 07:37:19;;;;;;;4.57;2.28;;;;;;;3.41;100.00;93690.31;5113314;28;20036;-82
2021/12/29 07:39:44;;;;;;;4.63;1.90;;;;;;;3.44;100.00;93692.44;5113257;28;20061;-82
2021/12/29 07:42:10;;;;;;;8.52;2.70;;;;;;;3.43;100.00;93696.03;5112882;28;20093;-83
2021/12/29 07:44:36;;;;;;;9.18;2.72;;;;;;;3.40;100.00;93699.13;5114523;28;20070;-83
2021/12/29 07:47:02;;;;;;;6.20;2.55;;;;;;;3.39;100.00;93689.78;5105532;28;20032;-83
2021/12/29 07:49:28;;;;;;;5.45;1.95;;;;;;;3.29;100.00;93699.97;5092767;28;20403;-83
2021/12/29 07:51:57;;;;;;;3.63;2.13;;;;;;;3.21;100.00;93699.38;5094018;28;20059;-90
2021/12/29 08:07:11;;;;;;;7.22;2.03;;;;;;;3.47;100.00;93710.09;5051088;28;20048;-95
2021/12/29 08:09:37;;;;;;;6.25;2.33;;;;;;;3.42;100.00;93706.66;5019535;28;20033;-94
2021/12/29 08:12:03;;;;;;;8.70;3.28;;;;;;;3.41;100.00;93712.84;5019915;28;20032;-94
2021/12/29 08:14:28;;;;;;;5.68;3.70;;;;;;;3.29;100.00;93710.34;5019145;28;20041;-94
2021/12/29 08:16:54;;;;;;;6.65;3.53;;;;;;;3.18;100.00;93723.16;5019552;28;20095;-93
2021/12/29 08:19:19;;;;;;;6.18;3.50;;;;;;;3.06;100.00;93725.81;5019321;28;20434;-93
2021/12/29 08:21:45;;;;;;;6.63;3.72;;;;;;;3.17;100.00;93725.97;5019271;28;20065;-93
2021/12/29 08:24:10;;;;;;;9.38;4.25;;;;;;;3.15;100.00;93733.19;5019560;28;20039;-93
2021/12/29 08:26:42;;;;;;;6.45;3.70;;;;;;;3.09;100.00;93732.31;5019418;28;20033;-94
2021/12/29 08:29:07;;;;;;;8.65;3.22;;;;;;;3.21;100.00;93740.00;5032986;28;20032;-93
2021/12/29 08:31:41;;;;;;;7.72;3.88;;;;;;;3.36;100.00;93744.63;5023867;28;20037;-92
2021/12/29 08:34:06;;;;;;;10.13;3.75;;;;;;;3.48;100.00;93734.97;5007078;28;20029;-93
2021/12/29 08:36:32;;;;;;;6.38;3.58;;;;;;;3.59;100.00;93745.50;5006533;28;20033;-94
2021/12/29 08:38:57;;;;;;;8.95;3.53;;;;;;;3.62;100.00;93745.00;5006621;28;20048;-93
2021/12/29 08:41:23;;;;;;;8.98;3.78;;;;;;;3.74;100.00;93748.28;5005945;28;20034;-93
2021/12/29 08:43:50;;;;;;;9.00;3.35;;;;;;;3.81;100.00;93767.00;5022420;28;20029;-94
2021/12/29 08:46:16;;;;;;;9.13;3.63;;;;;;;3.90;100.00;93771.78;5022396;28;20037;-92
2021/12/29 08:48:42;;;;;;;9.45;4.50;;;;;;;3.87;100.00;93778.25;5006145;28;20029;-92
2021/12/29 08:51:12;;;;;;;8.27;4.10;;;;;;;3.96;100.00;93774.22;5006011;28;20041;-92
2021/12/29 08:53:38;;;;;;;8.88;4.32;;;;;;;4.12;100.00;93779.59;5006114;28;20029;-92
2021/12/29 08:56:05;;;;;;;8.45;4.63;;;;;;;4.28;100.00;93788.31;5005887;28;20061;-92
2021/12/29 08:58:31;;;;;;;8.43;4.07;;;;;;;4.28;100.00;93793.50;5006255;28;20025;-93
2021/12/29 09:00:59;;;;;;;8.30;4.22;;;;;;;4.31;100.00;93792.25;5006331;28;20127;-91
2021/12/29 09:03:25;;;;;;;8.35;3.85;;;;;;;4.26;100.00;93794.78;5006083;28;20033;-92
2021/12/29 09:05:51;;;;;;;7.93;4.60;;;;;;;4.36;100.00;93803.47;5005899;28;20043;-91
2021/12/29 09:08:17;;;;;;;5.65;3.65;;;;;;;4.25;100.00;93801.78;5022067;28;20120;-93
2021/12/29 09:10:44;;;;;;;10.77;4.32;;;;;;;4.31;100.00;93787.06;5005631;28;20071;-94
2021/12/29 09:13:14;;;;;;;6.10;3.40;;;;;;;4.39;100.00;93791.84;5005824;28;20029;-94
2021/12/29 09:15:40;;;;;;;6.05;3.78;;;;;;;4.38;100.00;93791.03;5021974;28;20029;-93
2021/12/29 09:18:06;;;;;;;8.38;3.53;;;;;;;4.55;100.00;93781.63;5005313;28;20343;-94
2021/12/29 09:20:37;;;;;;;23.50;3.45;;;;;;;4.56;100.00;93767.63;5005493;28;20033;-94
2021/12/29 09:23:08;;;;;;;4.75;3.03;;;;;;;4.62;100.00;93769.22;5005635;28;20079;-93
2021/12/29 09:25:34;;;;;;;7.00;3.45;;;;;;;4.57;100.00;93758.81;5021681;28;20029;-92
2021/12/29 09:27:59;;;;;;;7.63;3.03;;;;;;;4.70;100.00;93762.81;5004932;28;20025;-92
2021/12/29 09:30:28;;;;;;;5.05;2.92;;;;;;;4.95;100.00;93767.50;5005496;28;20033;-93
2021/12/29 09:32:55;;;;;;;9.38;2.90;;;;;;;4.97;100.00;93772.41;5005274;28;20053;-92
2021/12/29 09:35:22;;;;;;;4.88;3.05;;;;;;;5.06;100.00;93778.75;5005034;28;20025;-95
2021/12/29 09:37:51;;;;;;;4.72;2.85;;;;;;;5.19;100.00;93770.53;5005182;28;20025;-92
2021/12/29 09:40:19;;;;;;;7.28;2.45;;;;;;;5.30;100.00;93775.78;5005427;28;20032;-93
2021/12/29 09:42:45;;;;;;;5.25;3.03;;;;;;;5.58;100.00;93771.31;5004291;28;20029;-93
2021/12/29 09:45:11;;;;;;;5.47;2.90;;;;;;;5.49;100.00;93768.41;5004873;28;20071;-92
2021/12/29 09:47:37;;;;;;;5.55;2.80;;;;;;;5.55;100.00;93777.03;5005005;28;20033;-93
2021/12/29 09:50:07;;;;;;;5.10;2.72;;;;;;;5.65;100.00;93777.09;5005140;28;20434;-93
2021/12/29 09:52:33;;;;;;;4.07;2.20;;;;;;;5.68;100.00;93768.78;5004912;28;20423;-91
2021/12/29 09:55:08;;;;;;;3.65;2.25;;;;;;;6.02;100.00;93773.69;5005054;28;20034;-93
2021/12/29 09:57:35;;;;;;;3.42;2.03;;;;;;;6.19;100.00;93772.75;5005495;28;20112;-93
2021/12/29 10:00:04;;;;;;;4.25;2.00;;;;;;;6.32;100.00;93766.28;5021311;28;20090;-92
2021/12/29 10:02:30;;;;;;;6.40;2.63;;;;;;;6.47;100.00;93783.78;5005174;28;20411;-93
2021/12/29 10:04:57;;;;;;;11.95;4.20;;;;;;;6.46;100.00;93784.81;5006975;28;20033;-94
2021/12/29 10:07:22;;;;;;;5.20;3.45;;;;;;;6.37;100.00;93774.09;5006231;28;20458;-95
2021/12/29 10:09:48;;;;;;;8.50;3.60;;;;;;;6.34;100.00;93783.19;5011260;28;20038;-94
2021/12/29 10:12:19;;;;;;;6.57;3.80;;;;;;;6.16;100.00;93775.81;5005059;28;20045;-93
2021/12/29 10:14:50;;;;;;;7.50;3.78;;;;;;;6.10;100.00;93775.03;5005539;28;20084;-94
2021/12/29 10:17:16;;;;;;;5.55;3.67;;;;;;;5.97;100.00;93776.22;5004973;28;20103;-95
2021/12/29 10:19:42;;;;;;;5.60;3.55;;;;;;;6.01;100.00;93782.50;5005491;28;20033;-95
2021/12/29 10:22:19;;;;;;;6.03;3.85;;;;;;;6.03;100.00;93777.88;5005135;28;20342;-94
2021/12/29 10:24:50;;;;;;;9.00;3.67;;;;;;;6.16;100.00;93789.63;5029461;28;20024;-94
2021/12/29 10:38:18;;;;;;;7.00;3.25;;;;;;;6.80;100.00;93768.75;5049548;28;20030;-95
2021/12/29 10:41:08;;;;;;;;;;;;;;;;;;;;;
2021/12/29 11:16:48;;;;;;;6.97;3.92;;;;;;;7.34;100.00;93766.72;5016269;28;20121;-92
2021/12/29 11:19:18;;;;;;;5.50;3.67;;;;;;;7.24;100.00;93761.50;5001520;28;20033;-93
2021/12/29 11:21:45;;;;;;;5.38;3.78;;;;;;;7.42;100.00;93755.75;5000811;28;20058;-92
2021/12/29 11:24:17;;;;;;;6.38;3.47;;;;;;;7.44;100.00;93756.25;5000880;28;20091;-94
2021/12/29 11:26:49;;;;;;;5.63;3.20;;;;;;;7.50;100.00;93750.03;5001028;28;20030;-93
2021/12/29 11:29:19;;;;;;;9.40;3.83;;;;;;;7.78;100.00;93757.53;5001046;28;20044;-93
2021/12/29 11:32:01;;;;;;;10.23;3.95;;;;;;;7.74;100.00;93753.91;5001363;28;20029;-92
2021/12/29 11:34:33;;;;;;;6.95;3.80;;;;;;;7.79;100.00;93746.06;5002087;28;20036;-93
2021/12/29 11:37:10;;;;;;;5.97;3.42;;;;;;;7.85;100.00;93752.03;5000585;28;20065;-92
2021/12/29 11:39:41;;;;;;;4.45;2.78;;;;;;;7.89;100.00;93753.06;5000159;28;20423;-95
2021/12/29 11:42:07;;;;;;;5.68;3.38;;;;;;;7.99;100.00;93744.44;5000351;28;20025;-94
2021/12/29 11:44:40;;;;;;;5.57;2.97;;;;;;;7.98;100.00;93748.88;5000250;28;20041;-92
2021/12/29 11:47:07;;;;;;;6.75;3.13;;;;;;;8.09;100.00;93748.84;5000576;28;20026;-92
2021/12/29 11:49:38;;;;;;;5.93;2.83;;;;;;;8.25;100.00;93747.75;5000063;28;20431;-94
2021/12/29 11:52:09;;;;;;;6.43;4.07;;;;;;;8.19;100.00;93749.59;5000529;28;20060;-94
2021/12/29 11:55:07;;;;;;;4.78;2.67;;;;;;;8.25;100.00;93739.13;5016822;28;20034;-93
2021/12/29 11:57:35;;;;;;;6.65;3.28;;;;;;;8.40;100.00;93738.28;5016870;28;20033;-92
2021/12/29 12:00:22;;;;;;;6.20;3.50;;;;;;;8.66;100.00;93735.56;5000430;28;20457;-94
2021/12/29 12:02:50;;;;;;;6.07;3.53;;;;;;;8.68;100.00;93728.25;5001268;28;20029;-93
2021/12/29 12:05:22;;;;;;;4.60;3.08;;;;;;;8.84;100.00;93729.72;5001975;28;20026;-94
2021/12/29 12:07:51;;;;;;;7.75;3.05;;;;;;;8.91;100.00;93738.03;5004364;28;20025;-94
2021/12/29 12:10:35;;;;;;;3.85;2.65;;;;;;;8.74;100.00;93720.13;5004330;28;20342;-93
2021/12/29 12:13:02;;;;;;;9.43;2.92;;;;;;;8.62;100.00;93730.91;5004532;28;20320;-94
2021/12/29 12:15:32;;;;;;;5.53;3.20;;;;;;;8.77;100.00;93732.63;5004033;28;20041;-95
2021/12/29 12:18:06;;;;;;;4.53;3.00;;;;;;;8.59;100.00;93725.44;5004472;28;20033;-94
2021/12/29 12:20:43;;;;;;;5.10;2.58;;;;;;;8.77;100.00;93724.78;5005388;28;20042;-94
2021/12/29 12:23:12;;;;;;;5.05;2.50;;;;;;;8.91;100.00;93722.34;5003423;28;20084;-92
2021/12/29 12:25:38;;;;;;;5.70;2.88;;;;;;;9.00;100.00;93730.41;5004419;28;20132;-94
2021/12/29 12:28:16;;;;;;;5.90;3.25;;;;;;;9.27;100.00;93728.34;5003342;28;20037;-93
2021/12/29 12:30:45;;;;;;;5.97;3.22;;;;;;;8.98;100.00;93729.09;5003783;28;20025;-93
2021/12/29 12:33:17;;;;;;;4.28;2.83;;;;;;;9.34;100.00;93734.81;5003343;28;20424;-93
2021/12/29 12:35:51;;;;;;;8.40;3.00;;;;;;;8.86;100.00;93726.84;5003652;28;20092;-94
2021/12/29 12:38:24;;;;;;;6.32;2.90;;;;;;;9.20;100.00;93731.28;5003272;28;20087;-92
2021/12/29 12:41:08;;;;;;;8.13;3.30;;;;;;;9.02;100.00;93727.50;5003745;28;20030;-93
2021/12/29 12:43:36;;;;;;;6.60;3.20;;;;;;;8.75;100.00;93726.09;5021458;28;20026;-93
2021/12/29 12:46:05;;;;;;;4.30;2.55;;;;;;;8.85;100.00;93727.88;5005136;28;20053;-93
2021/12/29 12:48:33;;;;;;;3.50;2.13;;;;;;;9.10;100.00;93729.53;5003728;28;20022;-93
2021/12/29 12:51:15;;;;;;;6.10;2.88;;;;;;;9.03;100.00;93737.69;5003935;28;20022;-91
2021/12/29 12:53:41;;;;;;;5.65;2.40;;;;;;;9.21;100.00;93732.84;5003406;28;20383;-93
2021/12/29 12:56:16;;;;;;;3.55;2.10;;;;;;;9.40;100.00;93727.72;5003654;28;20450;-95
2021/12/29 12:58:45;;;;;;;4.78;2.33;;;;;;;9.33;100.00;93732.50;5003055;28;20032;-93
2021/12/29 13:01:24;;;;;;;3.13;1.77;;;;;;;9.26;100.00;93734.63;5003334;28;20022;-95
2021/12/29 13:04:05;;;;;;;4.68;2.10;;;;;;;9.34;100.00;93728.84;5003293;28;20033;-94
2021/12/29 13:06:35;;;;;;;7.60;2.40;;;;;;;9.42;100.00;93720.38;5002992;28;20343;-94
2021/12/29 13:09:04;;;;;;;10.63;5.82;;;;;;;9.56;100.00;93730.19;5003690;28;20076;-93
2021/12/29 13:11:34;;;;;;;269.63;126.70;;;;;;;9.45;100.00;93724.28;5019771;28;20431;-93
2021/12/29 13:14:02;;;;;;;149.73;75.80;;;;;;;9.39;100.00;93723.56;5003995;28;20427;-93
2021/12/29 13:16:28;;;;;;;26.13;13.20;;;;;;;9.32;100.00;93715.22;5018652;28;20124;-92
2021/12/29 13:18:55;;;;;;;22.23;12.63;;;;;;;9.16;100.00;93719.81;5018874;28;20037;-92
2021/12/29 13:21:26;;;;;;;19.17;10.65;;;;;;;8.81;100.00;93721.63;5002433;28;20030;-92
2021/12/29 13:23:58;;;;;;;23.77;11.93;;;;;;;8.91;100.00;93726.78;5002980;28;20025;-94
2021/12/29 13:26:36;;;;;;;16.00;7.40;;;;;;;8.95;100.00;93730.41;5003188;28;20040;-91
2021/12/29 13:29:08;;;;;;;7.15;4.38;;;;;;;8.83;100.00;93736.00;5002653;28;20494;-93
2021/12/29 13:31:34;;;;;;;8.10;4.40;;;;;;;8.96;100.00;93731.22;5002474;28;20423;-94
2021/12/29 13:34:00;;;;;;;5.75;3.80;;;;;;;8.96;100.00;93731.97;5002519;28;20072;-92
2021/12/29 13:36:29;;;;;;;6.15;3.47;;;;;;;9.08;100.00;93742.09;5002479;28;20021;-94
2021/12/29 13:38:57;;;;;;;6.32;2.58;;;;;;;9.08;100.00;93744.72;5003013;28;20029;-95
2021/12/29 13:41:34;;;;;;;4.00;2.30;;;;;;;9.21;100.00;93740.69;5002807;28;20037;-92
2021/12/29 13:44:11;;;;;;;7.28;3.17;;;;;;;9.40;100.00;93745.25;5002483;28;20132;-92
2021/12/29 13:46:43;;;;;;;4.20;2.50;;;;;;;9.60;100.00;93741.66;5003480;28;20037;-93
2021/12/29 13:49:14;;;;;;;8.65;3.75;;;;;;;9.71;100.00;93734.50;5002273;28;20435;-93
2021/12/29 13:51:46;;;;;;;6.35;3.80;;;;;;;9.83;100.00;93742.78;5002324;28;20025;-91
2021/12/29 13:54:15;;;;;;;6.35;3.78;;;;;;;9.87;100.00;93745.59;5001935;28;20500;-92
2021/12/29 13:56:43;;;;;;;4.15;2.58;;;;;;;9.85;100.00;93750.31;5001583;28;20022;-92
2021/12/29 13:59:15;;;;;;;7.13;3.05;;;;;;;10.09;100.00;93758.19;5001837;28;20021;-91
2021/12/29 14:01:47;;;;;;;9.95;6.03;;;;;;;10.05;100.00;93765.03;5001705;28;20036;-93
2021/12/29 14:04:16;;;;;;;7.45;4.47;;;;;;;10.08;100.00;93764.47;5001834;28;20436;-92
2021/12/29 14:10:08;;;;;;;9.45;4.65;;;;;;;9.17;100.00;93750.91;5019257;28;20064;-92
2021/12/29 14:12:36;;;;;;;7.90;4.63;;;;;;;8.96;100.00;93750.25;5002350;28;20025;-92
2021/12/29 14:15:08;;;;;;;11.68;5.70;;;;;;;8.82;100.00;93757.94;5002044;28;20026;-94
2021/12/29 14:17:52;;;;;;;;;;;;;;;;;;;;;
2021/12/29 14:43:56;;;;;;;9.57;5.75;;;;;;;8.51;100.00;93780.81;5113911;27;20407;-86
2021/12/29 14:46:22;;;;;;;9.02;5.50;;;;;;;8.51;100.00;93780.81;5092721;28;20024;-86
2021/12/29 15:01:47;;;;;;;8.27;4.30;;;;;;;8.23;100.00;93799.44;5023493;27;1430736;-91
2021/12/29 15:04:12;;;;;;;9.18;3.97;;;;;;;8.19;100.00;93801.78;5052393;28;20367;-91
2021/12/29 15:06:40;;;;;;;8.32;3.42;;;;;;;8.12;100.00;93813.53;5036208;28;20025;-91
2021/12/29 15:09:10;;;;;;;5.53;3.45;;;;;;;7.94;100.00;93820.88;5036381;28;20326;-91
2021/12/29 15:11:41;;;;;;;8.50;4.72;;;;;;;7.78;100.00;93823.53;5052170;28;20080;-91
2021/12/29 15:14:20;;;;;;;16.02;8.95;;;;;;;7.61;100.00;93820.41;5035710;28;20060;-91
2021/12/29 15:17:02;;;;;;;17.50;9.32;;;;;;;7.38;100.00;93813.88;5036257;28;20067;-91
2021/12/29 15:19:27;;;;;;;24.00;11.80;;;;;;;7.05;100.00;93814.13;5036311;28;20422;-90
2021/12/29 15:21:53;;;;;;;26.02;14.05;;;;;;;6.90;100.00;93815.66;5035436;28;20035;-91
2021/12/29 15:24:18;;;;;;;88.03;35.58;;;;;;;6.85;100.00;93826.03;5035845;28;20029;-91
2021/12/29 15:26:45;;;;;;;32.20;17.30;;;;;;;6.74;100.00;93824.44;5052086;28;20037;-91
2021/12/29 15:29:11;;;;;;;26.50;15.13;;;;;;;6.61;100.00;93817.91;5035607;28;20033;-91
2021/12/29 15:31:38;;;;;;;18.45;10.18;;;;;;;6.56;100.00;93836.88;5035369;28;20036;-90
2021/12/29 15:34:04;;;;;;;18.40;8.43;;;;;;;6.59;100.00;93836.38;5052060;28;20025;-91
2021/12/29 15:36:30;;;;;;;17.52;9.88;;;;;;;6.46;100.00;93835.03;5035879;28;20055;-90
2021/12/29 15:38:55;;;;;;;11.55;6.85;;;;;;;6.37;100.00;93844.34;5035611;28;20108;-90
2021/12/29 15:41:22;;;;;;;19.85;7.63;;;;;;;6.30;100.00;93849.78;5035257;28;20032;-90
2021/12/29 15:43:49;;;;;;;22.48;12.32;;;;;;;6.24;100.00;93861.19;5035697;28;20434;-91